Flight Sim Network - KAFW Airport Info

    KAFW (Fort Worth Alliance Airport)  Login to use Map Selector
   

  RUNWAY INFORMATION    |    Airport Elevation : 722ft    |    LAT : 32.9875984192  /  LON : -97.3188018799
Runway Number 16R / 34L Runway Width 150' Runway Length 8220'
Lighted Runway Yes Runway StatusOpen Runway Surface Concrete
Runway Number 16L / 34R Runway Width 150' Runway Length 9600'
Lighted Runway Yes Runway StatusOpen Runway Surface Concrete
  CLOSE ALTERNATE AIRPORTS
ICAODistanceAirport NameLongest RWRW SurfaceMAP
52F6NMNorthwest Regl3500FTAsphalt
T676NMHicks3740FTAsphalt
16XS6NMPropwash3000FTAsphalt
7TS08NMFairview Airport3300FTDirt
4TA29NMKenneth Copeland8999FTAsphalt
TS5310NMFlying Cap Valley Airport3275FTDirt
KFTW10NMFort Worth Meacham International Airport7516FTConcrete
TS7213NMRhome Meadows4200FTDirt
58TA14NMHeritage Creek Airstrip3100FTDirt
KDTO14NMDenton Municipal Airport6011FTAsphalt
  AIRPORT WEATHER
82°F | 27°C
Temperature
62%
Humidity
30" | 1016mb
Pressure
10sm
Visibility
VFR
Flight Rules
SCT @ 3100ft
Initial Clouds
FAIR
Conditions
Wind Info
7/23/24 16:53Z
Updated

KAFW 231653Z 00000KT 10SM SCT031 SCT100 BKN250 28/20 A3007 RMK AO2 SLP169 T02780200
  AIRPORT FREQUENCIES
NameFrequency
ATIS126.920
CLEARANCE126.920
GROUND132.650
TOWER135.150
APPROACH118.100
DEPARTURE118.100
IUPE (RWY 16L)110.150
IJVX (RWY 34R)110.150

Powered by Virtual Airlines Manager